AAL163 KDFW-MMTL
Flight info
| Callsign | AAL163 |
|---|---|
| Flight time | 2h 11m |
| Altitude | 37000 |
| Route | DARTZ9 TNV DCT VUH DCT KELPP A766 KEHLI UA766 VIGTU VIGTU1C |
| Aircraft | A319/M-SDE3FGHIRWY/LB1 |
Departure
| Time | 2026-05-08 18:25 |
|---|---|
| Airport | Dallas Fort Worth International Airport (KDFW) |
Arrival
| Time | 2026-05-08 20:37 |
|---|---|
| Airport | Felipe Carrillo Puerto International Airport Tulum (MMTL) |
| Time | Latitude | Longitude | Altitude | Speed | Heading |
|---|---|---|---|---|---|
| 2026-05-08 17:51 | 32.89747 | -97.03503 | 616 ft | 0 kts | 272° |
| 2026-05-08 18:14 | 32.89746 | -97.03490 | 627 ft | 4 kts | 275° |
| 2026-05-08 18:14 | 32.89742 | -97.03459 | 628 ft | 4 kts | 287° |
| 2026-05-08 18:14 | 32.89732 | -97.03430 | 628 ft | 4 kts | 304° |
| 2026-05-08 18:14 | 32.89714 | -97.03407 | 630 ft | 4 kts | 333° |
| 2026-05-08 18:15 | 32.89696 | -97.03401 | 627 ft | 0 kts | 1° |
| 2026-05-08 18:17 | 32.89718 | -97.03401 | 622 ft | 6 kts | 1° |
| 2026-05-08 18:18 | 32.89755 | -97.03366 | 618 ft | 10 kts | 83° |
| 2026-05-08 18:18 | 32.89753 | -97.03259 | 616 ft | 16 kts | 90° |
| 2026-05-08 18:18 | 32.89827 | -97.03193 | 616 ft | 17 kts | 358° |
| 2026-05-08 18:18 | 32.89956 | -97.03193 | 618 ft | 20 kts | 0° |
| 2026-05-08 18:19 | 32.90104 | -97.03192 | 619 ft | 23 kts | 1° |
| 2026-05-08 18:19 | 32.90270 | -97.03190 | 620 ft | 25 kts | 0° |
| 2026-05-08 18:19 | 32.90451 | -97.03190 | 620 ft | 27 kts | 0° |
| 2026-05-08 18:19 | 32.90646 | -97.03189 | 620 ft | 29 kts | 0° |
| 2026-05-08 18:20 | 32.90828 | -97.03188 | 621 ft | 25 kts | 0° |
| 2026-05-08 18:20 | 32.91009 | -97.03187 | 623 ft | 27 kts | 0° |
| 2026-05-08 18:20 | 32.91203 | -97.03186 | 621 ft | 29 kts | 0° |
| 2026-05-08 18:20 | 32.91378 | -97.03184 | 621 ft | 16 kts | 0° |
| 2026-05-08 18:21 | 32.91473 | -97.03183 | 619 ft | 11 kts | 1° |
| 2026-05-08 18:21 | 32.91553 | -97.03173 | 620 ft | 10 kts | 31° |
| 2026-05-08 18:21 | 32.91565 | -97.03109 | 616 ft | 1 kts | 94° |
| 2026-05-08 18:21 | 32.91564 | -97.03103 | 616 ft | 0 kts | 94° |
| 2026-05-08 18:23 | 32.91564 | -97.03102 | 616 ft | 1 kts | 94° |
| 2026-05-08 18:23 | 32.91562 | -97.03055 | 616 ft | 10 kts | 93° |
| 2026-05-08 18:23 | 32.91529 | -97.02986 | 616 ft | 6 kts | 169° |
| 2026-05-08 18:23 | 32.91494 | -97.02990 | 616 ft | 0 kts | 183° |
| 2026-05-08 18:24 | 32.91478 | -97.02991 | 618 ft | 7 kts | 182° |
| 2026-05-08 18:24 | 32.91157 | -97.02993 | 619 ft | 86 kts | 180° |
| 2026-05-08 18:25 | 32.90329 | -97.02997 | 616 ft | 149 kts | 180° |
| 2026-05-08 18:25 | 32.89199 | -97.03001 | 1064 ft | 163 kts | 180° |
| 2026-05-08 18:25 | 32.88059 | -97.02972 | 1821 ft | 164 kts | 179° |
| 2026-05-08 18:25 | 32.86906 | -97.02962 | 2507 ft | 170 kts | 180° |
| 2026-05-08 18:26 | 32.85667 | -97.02958 | 2865 ft | 192 kts | 181° |
| 2026-05-08 18:26 | 32.84247 | -97.02960 | 3275 ft | 216 kts | 182° |
| 2026-05-08 18:26 | 32.82660 | -97.02966 | 3756 ft | 240 kts | 182° |
| 2026-05-08 18:26 | 32.80938 | -97.02975 | 4426 ft | 253 kts | 183° |
| 2026-05-08 18:27 | 32.79145 | -97.02982 | 5320 ft | 260 kts | 184° |
| 2026-05-08 18:27 | 32.77944 | -97.02986 | 5954 ft | 262 kts | 184° |
| 2026-05-08 18:27 | 32.75491 | -97.02997 | 7244 ft | 265 kts | 185° |
| 2026-05-08 18:27 | 32.73633 | -97.03005 | 8175 ft | 268 kts | 185° |
| 2026-05-08 18:28 | 32.71785 | -97.03000 | 9068 ft | 272 kts | 182° |
| 2026-05-08 18:28 | 32.69864 | -97.02564 | 9855 ft | 287 kts | 166° |
| 2026-05-08 18:28 | 32.67998 | -97.01625 | 10313 ft | 307 kts | 161° |
| 2026-05-08 18:28 | 32.65962 | -97.00583 | 10683 ft | 329 kts | 161° |
| 2026-05-08 18:29 | 32.63822 | -96.99487 | 11368 ft | 339 kts | 161° |
| 2026-05-08 18:29 | 32.61634 | -96.98359 | 12162 ft | 345 kts | 161° |
| 2026-05-08 18:29 | 32.59414 | -96.97222 | 12971 ft | 350 kts | 162° |
| 2026-05-08 18:29 | 32.57156 | -96.96097 | 13744 ft | 355 kts | 163° |
| 2026-05-08 18:30 | 32.54863 | -96.94948 | 14439 ft | 360 kts | 162° |
| 2026-05-08 18:30 | 32.52588 | -96.93771 | 15151 ft | 364 kts | 162° |
| 2026-05-08 18:30 | 32.50267 | -96.92546 | 15869 ft | 367 kts | 161° |
| 2026-05-08 18:30 | 32.47922 | -96.91298 | 16585 ft | 371 kts | 162° |
| 2026-05-08 18:31 | 32.45561 | -96.90045 | 17313 ft | 374 kts | 162° |
| 2026-05-08 18:31 | 32.43166 | -96.88778 | 18020 ft | 378 kts | 162° |
| 2026-05-08 18:31 | 32.40757 | -96.87505 | 18648 ft | 382 kts | 162° |
| 2026-05-08 18:31 | 32.38314 | -96.86218 | 19260 ft | 385 kts | 162° |
| 2026-05-08 18:32 | 32.35859 | -96.84928 | 19872 ft | 388 kts | 163° |
| 2026-05-08 18:32 | 32.33380 | -96.83629 | 20467 ft | 392 kts | 163° |
| 2026-05-08 18:32 | 32.30905 | -96.82339 | 21064 ft | 395 kts | 164° |
| 2026-05-08 18:32 | 32.28370 | -96.81051 | 21659 ft | 396 kts | 168° |
| 2026-05-08 18:33 | 32.25768 | -96.80015 | 22253 ft | 397 kts | 170° |
| 2026-05-08 18:33 | 32.23131 | -96.78988 | 22864 ft | 400 kts | 170° |
| 2026-05-08 18:33 | 32.20482 | -96.77960 | 23468 ft | 403 kts | 171° |
| 2026-05-08 18:33 | 32.17809 | -96.76924 | 23981 ft | 406 kts | 171° |
| 2026-05-08 18:34 | 32.15117 | -96.75876 | 24472 ft | 408 kts | 171° |
| 2026-05-08 18:34 | 32.12412 | -96.74821 | 24980 ft | 410 kts | 171° |
| 2026-05-08 18:34 | 32.09737 | -96.73778 | 25470 ft | 411 kts | 171° |
| 2026-05-08 18:34 | 32.07014 | -96.72716 | 25967 ft | 413 kts | 171° |
| 2026-05-08 18:35 | 32.04284 | -96.71652 | 26436 ft | 415 kts | 171° |
| 2026-05-08 18:35 | 32.01533 | -96.70585 | 26914 ft | 417 kts | 172° |
| 2026-05-08 18:35 | 31.98770 | -96.69515 | 27368 ft | 419 kts | 172° |
| 2026-05-08 18:35 | 31.95999 | -96.68442 | 27828 ft | 421 kts | 172° |
| 2026-05-08 18:36 | 31.93210 | -96.67362 | 28291 ft | 423 kts | 172° |
| 2026-05-08 18:36 | 31.90405 | -96.66274 | 28745 ft | 425 kts | 172° |
| 2026-05-08 18:36 | 31.87592 | -96.65184 | 29162 ft | 426 kts | 172° |
| 2026-05-08 18:36 | 31.84806 | -96.64105 | 29621 ft | 428 kts | 172° |
| 2026-05-08 18:37 | 31.81972 | -96.63009 | 30057 ft | 430 kts | 172° |
| 2026-05-08 18:37 | 31.79123 | -96.61908 | 30395 ft | 432 kts | 172° |
| 2026-05-08 18:37 | 31.76263 | -96.60804 | 30737 ft | 434 kts | 172° |
| 2026-05-08 18:37 | 31.73391 | -96.59698 | 31078 ft | 436 kts | 172° |
| 2026-05-08 18:38 | 31.70502 | -96.58587 | 31423 ft | 438 kts | 172° |
| 2026-05-08 18:38 | 31.67597 | -96.57470 | 31744 ft | 440 kts | 172° |
| 2026-05-08 18:38 | 31.64683 | -96.56349 | 32072 ft | 441 kts | 172° |
| 2026-05-08 18:38 | 31.61812 | -96.55242 | 32474 ft | 441 kts | 172° |
| 2026-05-08 18:39 | 31.58905 | -96.54119 | 32940 ft | 439 kts | 173° |
| 2026-05-08 18:39 | 31.56009 | -96.53000 | 33397 ft | 437 kts | 173° |
| 2026-05-08 18:39 | 31.53128 | -96.51888 | 33870 ft | 436 kts | 173° |
| 2026-05-08 18:39 | 31.50251 | -96.50781 | 34282 ft | 434 kts | 173° |
| 2026-05-08 18:40 | 31.47374 | -96.49690 | 34676 ft | 433 kts | 174° |
| 2026-05-08 18:40 | 31.44507 | -96.48617 | 34894 ft | 433 kts | 174° |
| 2026-05-08 18:40 | 31.38823 | -96.46509 | 34933 ft | 431 kts | 174° |
| 2026-05-08 18:41 | 31.33093 | -96.44377 | 34944 ft | 432 kts | 174° |
| 2026-05-08 18:41 | 31.27358 | -96.42229 | 34946 ft | 433 kts | 174° |
| 2026-05-08 18:42 | 31.21617 | -96.40087 | 35259 ft | 433 kts | 174° |
| 2026-05-08 18:42 | 31.18748 | -96.39017 | 35645 ft | 432 kts | 174° |
| 2026-05-08 18:42 | 31.15922 | -96.37964 | 35996 ft | 432 kts | 174° |
| 2026-05-08 18:43 | 31.13065 | -96.36900 | 36342 ft | 431 kts | 174° |
| 2026-05-08 18:43 | 31.10213 | -96.35838 | 36679 ft | 430 kts | 174° |
| 2026-05-08 18:43 | 31.07359 | -96.34777 | 36870 ft | 431 kts | 175° |
| 2026-05-08 18:43 | 31.04508 | -96.33715 | 36932 ft | 428 kts | 175° |
| 2026-05-08 18:44 | 30.98876 | -96.31618 | 36929 ft | 424 kts | 175° |
| 2026-05-08 18:44 | 30.93265 | -96.29539 | 36960 ft | 423 kts | 175° |
| 2026-05-08 18:45 | 30.87689 | -96.27478 | 36971 ft | 423 kts | 175° |
| 2026-05-08 18:45 | 30.82077 | -96.25407 | 36982 ft | 423 kts | 175° |
| 2026-05-08 18:46 | 30.76421 | -96.23322 | 36993 ft | 433 kts | 175° |
| 2026-05-08 18:46 | 30.70674 | -96.21210 | 36986 ft | 438 kts | 175° |
| 2026-05-08 18:47 | 30.64859 | -96.19064 | 36976 ft | 439 kts | 175° |
| 2026-05-08 18:47 | 30.59036 | -96.16907 | 36947 ft | 439 kts | 174° |
| 2026-05-08 18:48 | 30.53217 | -96.14754 | 36937 ft | 439 kts | 175° |
| 2026-05-08 18:48 | 30.47427 | -96.12624 | 36885 ft | 439 kts | 175° |
| 2026-05-08 18:49 | 30.41599 | -96.10487 | 36857 ft | 440 kts | 175° |
| 2026-05-08 18:49 | 30.35762 | -96.08352 | 36775 ft | 440 kts | 175° |
| 2026-05-08 18:50 | 30.29979 | -96.05859 | 36763 ft | 458 kts | 163° |
| 2026-05-08 18:50 | 30.27272 | -96.03791 | 36768 ft | 476 kts | 152° |
| 2026-05-08 18:50 | 30.25634 | -96.02065 | 36719 ft | 487 kts | 146° |
| 2026-05-08 18:51 | 30.20148 | -95.95512 | 36737 ft | 488 kts | 146° |
| 2026-05-08 18:51 | 30.15410 | -95.89889 | 36803 ft | 488 kts | 146° |
| 2026-05-08 18:52 | 30.10661 | -95.84285 | 36835 ft | 488 kts | 146° |
| 2026-05-08 18:52 | 30.05906 | -95.78692 | 36859 ft | 488 kts | 146° |
| 2026-05-08 18:53 | 30.01175 | -95.73134 | 36905 ft | 488 kts | 146° |
| 2026-05-08 18:53 | 29.96420 | -95.67552 | 36872 ft | 488 kts | 146° |
| 2026-05-08 18:54 | 29.91656 | -95.61967 | 36930 ft | 489 kts | 146° |
| 2026-05-08 18:54 | 29.86899 | -95.56382 | 36933 ft | 489 kts | 146° |
| 2026-05-08 18:55 | 29.79778 | -95.48039 | 36945 ft | 489 kts | 146° |
| 2026-05-08 18:56 | 29.75011 | -95.42475 | 36943 ft | 489 kts | 146° |
| 2026-05-08 18:56 | 29.70234 | -95.36906 | 36910 ft | 488 kts | 146° |
| 2026-05-08 18:57 | 29.65487 | -95.31378 | 36908 ft | 489 kts | 146° |
| 2026-05-08 18:57 | 29.60702 | -95.25815 | 36921 ft | 490 kts | 146° |
| 2026-05-08 18:58 | 29.55917 | -95.20258 | 36946 ft | 490 kts | 146° |
| 2026-05-08 18:58 | 29.51933 | -95.15632 | 36971 ft | 490 kts | 146° |
| 2026-05-08 18:59 | 29.47125 | -95.10070 | 36972 ft | 490 kts | 146° |
| 2026-05-08 18:59 | 29.41545 | -95.03618 | 36935 ft | 490 kts | 145° |
| 2026-05-08 19:00 | 29.37516 | -94.98967 | 36918 ft | 490 kts | 145° |
| 2026-05-08 19:00 | 29.32743 | -94.93472 | 36917 ft | 490 kts | 145° |
| 2026-05-08 19:01 | 29.27925 | -94.87927 | 36929 ft | 491 kts | 145° |
| 2026-05-08 19:01 | 29.23502 | -94.81842 | 36931 ft | 500 kts | 138° |
| 2026-05-08 19:02 | 29.19205 | -94.75634 | 36933 ft | 500 kts | 138° |
| 2026-05-08 19:02 | 29.14879 | -94.69407 | 36911 ft | 501 kts | 138° |
| 2026-05-08 19:03 | 29.10526 | -94.63168 | 36912 ft | 502 kts | 138° |
| 2026-05-08 19:03 | 29.06181 | -94.56929 | 36923 ft | 502 kts | 138° |
| 2026-05-08 19:04 | 29.01824 | -94.50690 | 36923 ft | 502 kts | 138° |
| 2026-05-08 19:04 | 28.97501 | -94.44512 | 36927 ft | 501 kts | 138° |
| 2026-05-08 19:05 | 28.93143 | -94.38297 | 36929 ft | 501 kts | 138° |
| 2026-05-08 19:05 | 28.88795 | -94.32099 | 36888 ft | 501 kts | 138° |
| 2026-05-08 19:06 | 28.84434 | -94.25883 | 36896 ft | 502 kts | 137° |
| 2026-05-08 19:06 | 28.80065 | -94.19663 | 36909 ft | 503 kts | 138° |
| 2026-05-08 19:07 | 28.75697 | -94.13472 | 36910 ft | 504 kts | 137° |
| 2026-05-08 19:07 | 28.71301 | -94.07248 | 36926 ft | 505 kts | 137° |
| 2026-05-08 19:08 | 28.66899 | -94.01014 | 36925 ft | 505 kts | 137° |
| 2026-05-08 19:08 | 28.62486 | -93.94783 | 36931 ft | 505 kts | 137° |
| 2026-05-08 19:09 | 28.58107 | -93.88603 | 36909 ft | 505 kts | 137° |
| 2026-05-08 19:09 | 28.53700 | -93.82382 | 36919 ft | 505 kts | 137° |
| 2026-05-08 19:10 | 28.49286 | -93.76162 | 36912 ft | 505 kts | 137° |
| 2026-05-08 19:10 | 28.44861 | -93.69961 | 36921 ft | 505 kts | 137° |
| 2026-05-08 19:11 | 28.40443 | -93.63770 | 36930 ft | 505 kts | 137° |
| 2026-05-08 19:11 | 28.36040 | -93.57605 | 36928 ft | 505 kts | 137° |
| 2026-05-08 19:12 | 28.31617 | -93.51414 | 36919 ft | 505 kts | 137° |
| 2026-05-08 19:12 | 28.27195 | -93.45232 | 36934 ft | 505 kts | 137° |
| 2026-05-08 19:13 | 28.22768 | -93.39063 | 36938 ft | 504 kts | 137° |
| 2026-05-08 19:13 | 28.18365 | -93.32943 | 36946 ft | 504 kts | 137° |
| 2026-05-08 19:14 | 28.13937 | -93.26794 | 36933 ft | 503 kts | 137° |
| 2026-05-08 19:14 | 28.09514 | -93.20652 | 36940 ft | 503 kts | 137° |
| 2026-05-08 19:15 | 28.05083 | -93.14504 | 36934 ft | 503 kts | 137° |
| 2026-05-08 19:15 | 28.00678 | -93.08415 | 36916 ft | 503 kts | 137° |
| 2026-05-08 19:16 | 27.96249 | -93.02287 | 36930 ft | 503 kts | 136° |
| 2026-05-08 19:16 | 27.91826 | -92.96162 | 36932 ft | 503 kts | 136° |
| 2026-05-08 19:17 | 27.87386 | -92.90038 | 36926 ft | 503 kts | 136° |
| 2026-05-08 19:17 | 27.82941 | -92.83926 | 36938 ft | 503 kts | 137° |
| 2026-05-08 19:18 | 27.78527 | -92.77876 | 36932 ft | 503 kts | 137° |
| 2026-05-08 19:18 | 27.74076 | -92.71773 | 36933 ft | 503 kts | 137° |
| 2026-05-08 19:19 | 27.69632 | -92.65665 | 36924 ft | 503 kts | 136° |
| 2026-05-08 19:19 | 27.65184 | -92.59578 | 36924 ft | 503 kts | 136° |
| 2026-05-08 19:20 | 27.60758 | -92.53532 | 36927 ft | 503 kts | 136° |
| 2026-05-08 19:20 | 27.56296 | -92.47436 | 36924 ft | 503 kts | 136° |
| 2026-05-08 19:21 | 27.51835 | -92.41364 | 36924 ft | 504 kts | 136° |
| 2026-05-08 19:21 | 27.47366 | -92.35281 | 36927 ft | 504 kts | 136° |
| 2026-05-08 19:22 | 27.42929 | -92.29243 | 36917 ft | 503 kts | 136° |
| 2026-05-08 19:22 | 27.38463 | -92.23187 | 36929 ft | 502 kts | 136° |
| 2026-05-08 19:23 | 27.33999 | -92.17145 | 36931 ft | 502 kts | 136° |
| 2026-05-08 19:23 | 27.29540 | -92.11097 | 36932 ft | 502 kts | 136° |
| 2026-05-08 19:24 | 27.25113 | -92.05104 | 36932 ft | 502 kts | 136° |
| 2026-05-08 19:24 | 27.20648 | -91.99079 | 36926 ft | 502 kts | 136° |
| 2026-05-08 19:25 | 27.15828 | -91.93548 | 36900 ft | 488 kts | 150° |
| 2026-05-08 19:25 | 27.10362 | -91.89130 | 36911 ft | 484 kts | 152° |
| 2026-05-08 19:26 | 27.04923 | -91.84757 | 36918 ft | 484 kts | 152° |
| 2026-05-08 19:26 | 26.99459 | -91.80347 | 36922 ft | 484 kts | 152° |
| 2026-05-08 19:27 | 26.93991 | -91.75949 | 36918 ft | 484 kts | 152° |
| 2026-05-08 19:27 | 26.88522 | -91.71563 | 36918 ft | 484 kts | 152° |
| 2026-05-08 19:28 | 26.83052 | -91.67185 | 36906 ft | 483 kts | 152° |
| 2026-05-08 19:28 | 26.77622 | -91.62839 | 36918 ft | 483 kts | 152° |
| 2026-05-08 19:29 | 26.72164 | -91.58473 | 36923 ft | 482 kts | 152° |
| 2026-05-08 19:29 | 26.66703 | -91.54110 | 36924 ft | 482 kts | 152° |
| 2026-05-08 19:30 | 26.61244 | -91.49763 | 36917 ft | 482 kts | 152° |
| 2026-05-08 19:30 | 26.55816 | -91.45436 | 36917 ft | 482 kts | 152° |
| 2026-05-08 19:31 | 26.50360 | -91.41087 | 36906 ft | 482 kts | 151° |
| 2026-05-08 19:31 | 26.44897 | -91.36748 | 36914 ft | 482 kts | 151° |
| 2026-05-08 19:32 | 26.39438 | -91.32420 | 36919 ft | 482 kts | 151° |
| 2026-05-08 19:32 | 26.33975 | -91.28082 | 36921 ft | 482 kts | 151° |
| 2026-05-08 19:33 | 26.28548 | -91.23786 | 36920 ft | 482 kts | 151° |
| 2026-05-08 19:33 | 26.23088 | -91.19468 | 36902 ft | 482 kts | 151° |
| 2026-05-08 19:34 | 26.17613 | -91.15146 | 36905 ft | 482 kts | 151° |
| 2026-05-08 19:34 | 26.12139 | -91.10827 | 36906 ft | 483 kts | 150° |
| 2026-05-08 19:35 | 26.06693 | -91.06539 | 36915 ft | 483 kts | 151° |
| 2026-05-08 19:35 | 26.01210 | -91.02221 | 36918 ft | 483 kts | 150° |
| 2026-05-08 19:36 | 25.95719 | -90.97898 | 36921 ft | 483 kts | 151° |
| 2026-05-08 19:36 | 25.90228 | -90.93589 | 36915 ft | 483 kts | 150° |
| 2026-05-08 19:37 | 25.84743 | -90.89283 | 36927 ft | 483 kts | 150° |
| 2026-05-08 19:37 | 25.79283 | -90.85008 | 36930 ft | 483 kts | 150° |
| 2026-05-08 19:38 | 25.73800 | -90.80719 | 36925 ft | 483 kts | 150° |
| 2026-05-08 19:38 | 25.68316 | -90.76430 | 36924 ft | 483 kts | 150° |
| 2026-05-08 19:39 | 25.62829 | -90.72137 | 36908 ft | 482 kts | 150° |
| 2026-05-08 19:39 | 25.57382 | -90.67885 | 36915 ft | 482 kts | 150° |
| 2026-05-08 19:40 | 25.51895 | -90.63613 | 36919 ft | 482 kts | 150° |
| 2026-05-08 19:40 | 25.46411 | -90.59355 | 36920 ft | 482 kts | 150° |
| 2026-05-08 19:41 | 25.40927 | -90.55091 | 36921 ft | 482 kts | 150° |
| 2026-05-08 19:41 | 25.35473 | -90.50856 | 36923 ft | 482 kts | 150° |
| 2026-05-08 19:42 | 25.29986 | -90.46604 | 36918 ft | 482 kts | 150° |
| 2026-05-08 19:42 | 25.24500 | -90.42347 | 36927 ft | 482 kts | 150° |
| 2026-05-08 19:43 | 25.19012 | -90.38094 | 36929 ft | 482 kts | 150° |
| 2026-05-08 19:43 | 25.13552 | -90.33876 | 36925 ft | 482 kts | 150° |
| 2026-05-08 19:44 | 25.08063 | -90.29632 | 36933 ft | 482 kts | 150° |
| 2026-05-08 19:44 | 25.02567 | -90.25385 | 36931 ft | 482 kts | 150° |
| 2026-05-08 19:45 | 24.97067 | -90.21155 | 36914 ft | 482 kts | 150° |
| 2026-05-08 19:45 | 24.91595 | -90.16948 | 36919 ft | 482 kts | 150° |
| 2026-05-08 19:46 | 24.86086 | -90.12719 | 36926 ft | 483 kts | 150° |
| 2026-05-08 19:46 | 24.77829 | -90.06374 | 36932 ft | 483 kts | 150° |
| 2026-05-08 19:47 | 24.72312 | -90.02143 | 36929 ft | 483 kts | 150° |
| 2026-05-08 19:47 | 24.66835 | -89.97954 | 36927 ft | 483 kts | 150° |
| 2026-05-08 19:48 | 24.61319 | -89.93733 | 36925 ft | 483 kts | 150° |
| 2026-05-08 19:48 | 24.55794 | -89.89510 | 36926 ft | 484 kts | 150° |
| 2026-05-08 19:49 | 24.50308 | -89.85318 | 36925 ft | 484 kts | 150° |
| 2026-05-08 19:49 | 24.44781 | -89.81107 | 36926 ft | 484 kts | 150° |
| 2026-05-08 19:50 | 24.39249 | -89.76895 | 36924 ft | 484 kts | 150° |
| 2026-05-08 19:50 | 24.33721 | -89.72680 | 36914 ft | 484 kts | 150° |
| 2026-05-08 19:51 | 24.28193 | -89.68483 | 36922 ft | 484 kts | 150° |
| 2026-05-08 19:51 | 24.22710 | -89.64309 | 36924 ft | 483 kts | 150° |
| 2026-05-08 19:52 | 24.17178 | -89.60111 | 36927 ft | 483 kts | 150° |
| 2026-05-08 19:52 | 24.11647 | -89.55922 | 36927 ft | 483 kts | 150° |
| 2026-05-08 19:53 | 24.06112 | -89.51737 | 36917 ft | 483 kts | 150° |
| 2026-05-08 19:53 | 24.00621 | -89.47575 | 36926 ft | 483 kts | 150° |
| 2026-05-08 19:54 | 23.95101 | -89.43399 | 36927 ft | 483 kts | 150° |
| 2026-05-08 19:54 | 23.89573 | -89.39228 | 36928 ft | 483 kts | 150° |
| 2026-05-08 19:55 | 23.84050 | -89.35062 | 36934 ft | 483 kts | 150° |
| 2026-05-08 19:55 | 23.78565 | -89.30926 | 36933 ft | 482 kts | 150° |
| 2026-05-08 19:56 | 23.73040 | -89.26773 | 36917 ft | 482 kts | 150° |
| 2026-05-08 19:56 | 23.67515 | -89.22622 | 36934 ft | 481 kts | 149° |
| 2026-05-08 19:57 | 23.62006 | -89.18487 | 36946 ft | 481 kts | 150° |
| 2026-05-08 19:57 | 23.56542 | -89.14379 | 36938 ft | 480 kts | 149° |
| 2026-05-08 19:58 | 23.51042 | -89.10253 | 36937 ft | 480 kts | 150° |
| 2026-05-08 19:58 | 23.45541 | -89.06135 | 36931 ft | 479 kts | 150° |
| 2026-05-08 19:59 | 23.40048 | -89.02024 | 36925 ft | 479 kts | 149° |
| 2026-05-08 19:59 | 23.34593 | -88.97947 | 36930 ft | 479 kts | 149° |
| 2026-05-08 20:00 | 23.29109 | -88.93849 | 36929 ft | 478 kts | 149° |
| 2026-05-08 20:00 | 23.23622 | -88.89766 | 36934 ft | 478 kts | 149° |
| 2026-05-08 20:01 | 23.18138 | -88.85679 | 36932 ft | 478 kts | 149° |
| 2026-05-08 20:01 | 23.12656 | -88.81585 | 36928 ft | 478 kts | 149° |
| 2026-05-08 20:02 | 23.07211 | -88.77534 | 36927 ft | 478 kts | 149° |
| 2026-05-08 20:02 | 23.01734 | -88.73458 | 36932 ft | 477 kts | 149° |
| 2026-05-08 20:03 | 22.96257 | -88.69397 | 36933 ft | 477 kts | 149° |
| 2026-05-08 20:03 | 22.90781 | -88.65348 | 36930 ft | 476 kts | 149° |
| 2026-05-08 20:04 | 22.85351 | -88.61323 | 36927 ft | 476 kts | 149° |
| 2026-05-08 20:04 | 22.79883 | -88.57264 | 36920 ft | 476 kts | 149° |
| 2026-05-08 20:05 | 22.74415 | -88.53217 | 36908 ft | 476 kts | 149° |
| 2026-05-08 20:05 | 22.68937 | -88.49182 | 36904 ft | 476 kts | 149° |
| 2026-05-08 20:06 | 22.63450 | -88.45149 | 36923 ft | 476 kts | 149° |
| 2026-05-08 20:06 | 22.58012 | -88.41148 | 36919 ft | 476 kts | 149° |
| 2026-05-08 20:07 | 22.52531 | -88.37114 | 36915 ft | 476 kts | 149° |
| 2026-05-08 20:07 | 22.47052 | -88.33082 | 36913 ft | 476 kts | 149° |
| 2026-05-08 20:08 | 22.41562 | -88.29052 | 36900 ft | 476 kts | 149° |
| 2026-05-08 20:08 | 22.36123 | -88.25061 | 36900 ft | 477 kts | 149° |
| 2026-05-08 20:09 | 22.30630 | -88.21033 | 36896 ft | 477 kts | 149° |
| 2026-05-08 20:09 | 22.25135 | -88.17015 | 36895 ft | 477 kts | 149° |
| 2026-05-08 20:10 | 22.19676 | -88.13023 | 36903 ft | 477 kts | 149° |
| 2026-05-08 20:10 | 22.14182 | -88.09003 | 36901 ft | 477 kts | 149° |
| 2026-05-08 20:11 | 22.08684 | -88.04982 | 36893 ft | 477 kts | 148° |
| 2026-05-08 20:11 | 22.03180 | -88.00967 | 36891 ft | 478 kts | 148° |
| 2026-05-08 20:12 | 21.97711 | -87.96974 | 36889 ft | 478 kts | 148° |
| 2026-05-08 20:12 | 21.92196 | -87.92958 | 36890 ft | 478 kts | 149° |
| 2026-05-08 20:13 | 21.86679 | -87.88949 | 36888 ft | 479 kts | 149° |
| 2026-05-08 20:13 | 21.81157 | -87.84936 | 36662 ft | 479 kts | 148° |
| 2026-05-08 20:14 | 21.78394 | -87.82925 | 36153 ft | 480 kts | 148° |
| 2026-05-08 20:14 | 21.75646 | -87.80928 | 35219 ft | 486 kts | 148° |
| 2026-05-08 20:14 | 21.72838 | -87.78892 | 34541 ft | 486 kts | 148° |
| 2026-05-08 20:14 | 21.70039 | -87.76863 | 33852 ft | 486 kts | 148° |
| 2026-05-08 20:15 | 21.67226 | -87.74827 | 32945 ft | 486 kts | 148° |
| 2026-05-08 20:15 | 21.64429 | -87.72801 | 31803 ft | 486 kts | 149° |
| 2026-05-08 20:15 | 21.61624 | -87.70767 | 30642 ft | 487 kts | 149° |
| 2026-05-08 20:15 | 21.58815 | -87.68730 | 29331 ft | 488 kts | 149° |
| 2026-05-08 20:16 | 21.55991 | -87.66685 | 27856 ft | 490 kts | 148° |
| 2026-05-08 20:16 | 21.53176 | -87.64642 | 26690 ft | 486 kts | 148° |
| 2026-05-08 20:16 | 21.50405 | -87.62656 | 25650 ft | 482 kts | 150° |
| 2026-05-08 20:16 | 21.47453 | -87.61060 | 24861 ft | 471 kts | 161° |
| 2026-05-08 20:17 | 21.44373 | -87.60078 | 24461 ft | 452 kts | 171° |
| 2026-05-08 20:17 | 21.41321 | -87.59427 | 24159 ft | 444 kts | 171° |
| 2026-05-08 20:17 | 21.38305 | -87.58772 | 23816 ft | 440 kts | 171° |
| 2026-05-08 20:17 | 21.35320 | -87.58120 | 23460 ft | 437 kts | 171° |
| 2026-05-08 20:18 | 21.32347 | -87.57472 | 23073 ft | 434 kts | 170° |
| 2026-05-08 20:18 | 21.29397 | -87.56830 | 22739 ft | 432 kts | 170° |
| 2026-05-08 20:18 | 21.26458 | -87.56195 | 22416 ft | 429 kts | 170° |
| 2026-05-08 20:18 | 21.23583 | -87.55577 | 22104 ft | 426 kts | 170° |
| 2026-05-08 20:19 | 21.20677 | -87.54958 | 21757 ft | 425 kts | 171° |
| 2026-05-08 20:19 | 21.17756 | -87.54740 | 21413 ft | 419 kts | 185° |
| 2026-05-08 20:19 | 21.14919 | -87.55322 | 21091 ft | 415 kts | 199° |
| 2026-05-08 20:19 | 21.12328 | -87.56659 | 20730 ft | 415 kts | 213° |
| 2026-05-08 20:20 | 21.10153 | -87.58672 | 20371 ft | 415 kts | 227° |
| 2026-05-08 20:20 | 21.08509 | -87.61219 | 20006 ft | 418 kts | 237° |
| 2026-05-08 20:20 | 21.07068 | -87.63924 | 19629 ft | 417 kts | 237° |
| 2026-05-08 20:20 | 21.05634 | -87.66617 | 19262 ft | 417 kts | 238° |
| 2026-05-08 20:21 | 21.04197 | -87.69311 | 18890 ft | 416 kts | 238° |
| 2026-05-08 20:21 | 21.02759 | -87.71990 | 18512 ft | 415 kts | 237° |
| 2026-05-08 20:21 | 21.01321 | -87.74665 | 18135 ft | 414 kts | 237° |
| 2026-05-08 20:21 | 20.99885 | -87.77335 | 17737 ft | 413 kts | 237° |
| 2026-05-08 20:22 | 20.98477 | -87.79955 | 17396 ft | 411 kts | 238° |
| 2026-05-08 20:22 | 20.97055 | -87.82597 | 17025 ft | 409 kts | 238° |
| 2026-05-08 20:22 | 20.95637 | -87.85229 | 16664 ft | 407 kts | 238° |
| 2026-05-08 20:22 | 20.94702 | -87.86963 | 16418 ft | 406 kts | 238° |
| 2026-05-08 20:23 | 20.92818 | -87.90459 | 15937 ft | 404 kts | 237° |
| 2026-05-08 20:23 | 20.91368 | -87.93015 | 15578 ft | 400 kts | 232° |
| 2026-05-08 20:23 | 20.89501 | -87.95179 | 15228 ft | 394 kts | 218° |
| 2026-05-08 20:23 | 20.87240 | -87.96765 | 14868 ft | 387 kts | 204° |
| 2026-05-08 20:24 | 20.84707 | -87.97756 | 13997 ft | 391 kts | 191° |
| 2026-05-08 20:24 | 20.82033 | -87.98042 | 12988 ft | 392 kts | 178° |
| 2026-05-08 20:24 | 20.79318 | -87.97962 | 12117 ft | 389 kts | 178° |
| 2026-05-08 20:24 | 20.76638 | -87.97891 | 11454 ft | 380 kts | 178° |
| 2026-05-08 20:25 | 20.74082 | -87.97835 | 11309 ft | 355 kts | 178° |
| 2026-05-08 20:25 | 20.71706 | -87.97790 | 11196 ft | 329 kts | 178° |
| 2026-05-08 20:25 | 20.69489 | -87.97749 | 11080 ft | 309 kts | 178° |
| 2026-05-08 20:25 | 20.67385 | -87.97709 | 10862 ft | 298 kts | 178° |
| 2026-05-08 20:26 | 20.65324 | -87.97667 | 10470 ft | 294 kts | 178° |
| 2026-05-08 20:26 | 20.63295 | -87.97625 | 10187 ft | 289 kts | 178° |
| 2026-05-08 20:26 | 20.61285 | -87.97584 | 9981 ft | 291 kts | 179° |
| 2026-05-08 20:26 | 20.59239 | -87.97540 | 9499 ft | 293 kts | 179° |
| 2026-05-08 20:27 | 20.57221 | -87.97499 | 9155 ft | 288 kts | 178° |
| 2026-05-08 20:27 | 20.55251 | -87.97459 | 8743 ft | 286 kts | 178° |
| 2026-05-08 20:27 | 20.53270 | -87.97418 | 8332 ft | 283 kts | 178° |
| 2026-05-08 20:27 | 20.51297 | -87.97377 | 7853 ft | 283 kts | 178° |
| 2026-05-08 20:28 | 20.49349 | -87.97207 | 7377 ft | 281 kts | 168° |
| 2026-05-08 20:28 | 20.47475 | -87.96675 | 6909 ft | 277 kts | 163° |
| 2026-05-08 20:28 | 20.45644 | -87.96133 | 6443 ft | 270 kts | 164° |
| 2026-05-08 20:28 | 20.43853 | -87.95605 | 5958 ft | 264 kts | 163° |
| 2026-05-08 20:29 | 20.42100 | -87.95093 | 5470 ft | 259 kts | 164° |
| 2026-05-08 20:29 | 20.40403 | -87.94595 | 4995 ft | 254 kts | 163° |
| 2026-05-08 20:29 | 20.38717 | -87.94099 | 4629 ft | 245 kts | 162° |
| 2026-05-08 20:29 | 20.37129 | -87.93632 | 4380 ft | 231 kts | 162° |
| 2026-05-08 20:30 | 20.35624 | -87.93190 | 4185 ft | 220 kts | 163° |
| 2026-05-08 20:30 | 20.34164 | -87.92762 | 3996 ft | 215 kts | 162° |
| 2026-05-08 20:30 | 20.32731 | -87.92342 | 3797 ft | 211 kts | 161° |
| 2026-05-08 20:30 | 20.31429 | -87.91714 | 3608 ft | 204 kts | 143° |
| 2026-05-08 20:31 | 20.30473 | -87.90634 | 3421 ft | 200 kts | 123° |
| 2026-05-08 20:31 | 20.29785 | -87.89363 | 3230 ft | 196 kts | 121° |
| 2026-05-08 20:31 | 20.29115 | -87.88115 | 3056 ft | 191 kts | 121° |
| 2026-05-08 20:31 | 20.28470 | -87.86915 | 2975 ft | 183 kts | 121° |
| 2026-05-08 20:32 | 20.27849 | -87.85761 | 2988 ft | 180 kts | 121° |
| 2026-05-08 20:32 | 20.27242 | -87.84634 | 2974 ft | 173 kts | 120° |
| 2026-05-08 20:32 | 20.26639 | -87.83513 | 2984 ft | 173 kts | 121° |
| 2026-05-08 20:32 | 20.26045 | -87.82409 | 2971 ft | 171 kts | 121° |
| 2026-05-08 20:33 | 20.25446 | -87.81297 | 2840 ft | 172 kts | 121° |
| 2026-05-08 20:33 | 20.24860 | -87.80209 | 2647 ft | 168 kts | 120° |
| 2026-05-08 20:33 | 20.24273 | -87.79118 | 2444 ft | 169 kts | 121° |
| 2026-05-08 20:33 | 20.23690 | -87.78036 | 2235 ft | 168 kts | 121° |
| 2026-05-08 20:34 | 20.23115 | -87.76970 | 2027 ft | 168 kts | 122° |
| 2026-05-08 20:34 | 20.22535 | -87.75892 | 1804 ft | 170 kts | 121° |
| 2026-05-08 20:34 | 20.21408 | -87.73801 | 1390 ft | 151 kts | 121° |
| 2026-05-08 20:35 | 20.20902 | -87.72862 | 1201 ft | 143 kts | 121° |
| 2026-05-08 20:35 | 20.20423 | -87.71971 | 1010 ft | 134 kts | 119° |
| 2026-05-08 20:35 | 20.19960 | -87.71124 | 860 ft | 131 kts | 117° |
| 2026-05-08 20:35 | 20.19497 | -87.70275 | 714 ft | 131 kts | 117° |
| 2026-05-08 20:36 | 20.19038 | -87.69417 | 492 ft | 135 kts | 114° |
| 2026-05-08 20:36 | 20.18580 | -87.68551 | 327 ft | 133 kts | 113° |
| 2026-05-08 20:36 | 20.18128 | -87.67720 | 127 ft | 131 kts | 114° |
| 2026-05-08 20:36 | 20.17710 | -87.66930 | 88 ft | 107 kts | 121° |
| 2026-05-08 20:37 | 20.17421 | -87.66399 | 82 ft | 62 kts | 120° |
| 2026-05-08 20:37 | 20.17252 | -87.66092 | 82 ft | 36 kts | 120° |
| 2026-05-08 20:37 | 20.17137 | -87.65881 | 85 ft | 31 kts | 120° |
| 2026-05-08 20:37 | 20.17043 | -87.65738 | 88 ft | 15 kts | 133° |
| 2026-05-08 20:38 | 20.16981 | -87.65680 | 86 ft | 8 kts | 145° |
| 2026-05-08 20:38 | 20.16929 | -87.65647 | 88 ft | 8 kts | 150° |
| 2026-05-08 20:38 | 20.16889 | -87.65629 | 85 ft | 6 kts | 169° |
| 2026-05-08 20:38 | 20.16855 | -87.65656 | 86 ft | 8 kts | 249° |
| 2026-05-08 20:39 | 20.16862 | -87.65711 | 85 ft | 7 kts | 275° |
| 2026-05-08 20:39 | 20.16844 | -87.65746 | 86 ft | 5 kts | 219° |
| 2026-05-08 20:39 | 20.16817 | -87.65747 | 86 ft | 4 kts | 160° |
| 2026-05-08 20:39 | 20.16783 | -87.65737 | 87 ft | 6 kts | 197° |
| 2026-05-08 20:40 | 20.16741 | -87.65766 | 86 ft | 8 kts | 211° |
| 2026-05-08 20:40 | 20.16709 | -87.65785 | 87 ft | 3 kts | 210° |
| 2026-05-08 20:40 | 20.16699 | -87.65791 | 87 ft | 2 kts | 210° |
| 2026-05-08 20:40 | 20.16699 | -87.65792 | 87 ft | 0 kts | 210° |